createdAt,value
2018-05-07T00:00:41.153Z,79.60
2018-05-07T00:03:10.978Z,79.60
2018-05-07T00:05:40.848Z,79.40
2018-05-07T00:08:10.636Z,78.90
2018-05-07T00:10:40.793Z,78.80
2018-05-07T00:13:11.928Z,78.80
2018-05-07T00:15:41.741Z,78.50
2018-05-07T00:18:11.565Z,78.30
2018-05-07T00:20:42.204Z,77.90
2018-05-07T00:23:11.989Z,77.80
2018-05-07T00:25:41.742Z,77.60
2018-05-07T00:28:11.653Z,77.40
2018-05-07T00:30:41.776Z,77.30
2018-05-07T00:33:11.862Z,76.90
2018-05-07T00:35:42.791Z,76.40
2018-05-07T00:38:13.419Z,76.40
2018-05-07T00:40:43.214Z,76.20
2018-05-07T00:43:13.617Z,76.00
2018-05-07T00:45:43.393Z,75.70
2018-05-07T00:48:13.931Z,75.30
2018-05-07T00:50:43.665Z,75.10
2018-05-07T00:53:13.516Z,74.90
2018-05-07T00:55:43.312Z,74.60
2018-05-07T00:58:13.852Z,73.80
2018-05-07T01:00:43.599Z,73.80
2018-05-07T01:03:14.351Z,72.90
2018-05-07T01:05:44.125Z,72.90
2018-05-07T01:08:13.909Z,72.30
2018-05-07T01:10:43.664Z,71.80
2018-05-07T01:13:13.789Z,71.60
2018-05-07T01:15:44.715Z,70.80
2018-05-07T01:18:15.267Z,70.60
2018-05-07T01:20:45.016Z,70.60
2018-05-07T01:23:14.794Z,70.30
2018-05-07T01:25:44.884Z,70.30
2018-05-07T01:28:15.420Z,70.00
2018-05-07T01:30:45.923Z,70.00
2018-05-07T01:33:15.734Z,69.90
2018-05-07T01:35:45.459Z,69.70
2018-05-07T01:38:15.987Z,68.80
2018-05-07T01:40:46.571Z,68.40
2018-05-07T01:43:16.329Z,68.40
2018-05-07T01:45:46.870Z,68.10
2018-05-07T01:48:17.423Z,67.90
2018-05-07T01:50:47.202Z,67.80
2018-05-07T01:53:17.777Z,67.50
2018-05-07T01:55:47.592Z,67.50
2018-05-07T01:58:17.321Z,66.90
2018-05-07T02:00:47.880Z,66.50
2018-05-07T02:03:18.412Z,65.90
2018-05-07T02:05:48.974Z,65.70
2018-05-07T02:08:18.725Z,65.60
2018-05-07T02:10:48.565Z,66.20
2018-05-07T02:13:19.081Z,65.60
2018-05-07T02:15:48.860Z,65.50
2018-05-07T02:18:18.692Z,65.30
2018-05-07T02:20:48.408Z,65.90
2018-05-07T02:23:18.143Z,66.40
2018-05-07T02:25:48.682Z,66.30
2018-05-07T02:28:18.762Z,66.30
2018-05-07T02:30:48.557Z,66.60
2018-05-07T02:33:18.415Z,67.40
2018-05-07T02:35:49.060Z,68.70
2018-05-07T02:38:18.849Z,68.60
2018-05-07T02:40:49.409Z,69.90
2018-05-07T02:43:20.201Z,69.90
2018-05-07T02:45:49.968Z,69.40
2018-05-07T02:48:19.776Z,68.30
2018-05-07T02:50:49.575Z,68.60
2018-05-07T02:53:19.354Z,68.30
2018-05-07T02:55:50.128Z,68.30
2018-05-07T02:58:19.897Z,69.20
2018-05-07T03:00:51.593Z,70.90
2018-05-07T03:03:21.689Z,70.00
2018-05-07T03:05:52.247Z,71.00
2018-05-07T03:08:22.896Z,70.90
2018-05-07T03:10:52.712Z,71.00
2018-05-07T03:13:22.488Z,71.50
2018-05-07T03:15:52.261Z,71.40
2018-05-07T03:18:22.102Z,71.70
2018-05-07T03:20:52.627Z,71.60
2018-05-07T03:23:23.210Z,72.20
2018-05-07T03:25:52.963Z,72.10
2018-05-07T03:28:23.504Z,72.10
2018-05-07T03:30:54.048Z,71.50
2018-05-07T03:33:23.881Z,71.50
2018-05-07T03:35:53.648Z,71.60
2018-05-07T03:38:24.189Z,71.60
2018-05-07T03:40:54.072Z,71.60
2018-05-07T03:43:23.829Z,71.90
2018-05-07T03:45:53.611Z,72.60
2018-05-07T03:48:24.958Z,73.10
2018-05-07T03:50:55.482Z,74.50
2018-05-07T03:53:26.835Z,75.50
2018-05-07T03:55:57.874Z,75.70
2018-05-07T03:58:28.388Z,76.00
2018-05-07T04:00:58.126Z,76.00
2018-05-07T04:03:27.978Z,76.70
2018-05-07T04:05:57.755Z,76.50
2018-05-07T04:08:28.284Z,77.70
2018-05-07T04:10:58.050Z,77.60
2018-05-07T04:13:27.831Z,78.30
2018-05-07T04:15:57.580Z,78.40
2018-05-07T04:18:38.418Z,79.60
2018-05-07T04:21:17.566Z,80.20
2018-05-07T04:23:58.326Z,81.10
2018-05-07T04:26:28.083Z,81.80
2018-05-07T04:28:58.577Z,82.90
2018-05-07T04:31:28.329Z,82.90
2018-05-07T04:33:58.843Z,83.80
2018-05-07T04:36:30.412Z,84.20
2018-05-07T04:39:00.937Z,82.20
2018-05-07T04:41:32.396Z,81.60
2018-05-07T04:44:02.149Z,81.50
2018-05-07T04:46:31.910Z,79.60
2018-05-07T04:49:02.425Z,79.50
2018-05-07T04:51:32.924Z,77.70
2018-05-07T04:54:02.773Z,77.70
2018-05-07T04:56:33.257Z,77.10
2018-05-07T04:59:03.005Z,77.10
2018-05-07T05:01:33.746Z,73.40
2018-05-07T05:04:04.276Z,69.00
2018-05-07T05:06:34.813Z,70.70
2018-05-07T05:09:07.288Z,70.60
2018-05-07T05:11:37.783Z,71.60
2018-05-07T05:14:07.664Z,71.50
2018-05-07T05:16:37.368Z,72.40
2018-05-07T05:19:07.138Z,72.40
2018-05-07T05:21:37.868Z,69.80
2018-05-07T05:24:08.339Z,68.10
2018-05-07T05:26:38.118Z,68.10
2018-05-07T05:29:08.639Z,68.20
2018-05-07T05:31:39.146Z,68.00
2018-05-07T05:34:08.866Z,68.00
2018-05-07T05:36:38.622Z,64.90
2018-05-07T05:39:09.218Z,64.60
2018-05-07T05:41:39.734Z,66.00
2018-05-07T05:44:10.267Z,65.50
2018-05-07T05:46:41.726Z,65.50
2018-05-07T05:49:12.266Z,64.90
2018-05-07T05:51:42.781Z,61.90
2018-05-07T05:54:13.313Z,61.00
2018-05-07T05:56:44.521Z,61.10
2018-05-07T05:59:15.103Z,61.10
2018-05-07T06:01:45.432Z,60.90
2018-05-07T06:04:15.202Z,60.60
2018-05-07T06:06:45.523Z,61.10
2018-05-07T06:09:15.506Z,61.60
2018-05-07T06:11:46.008Z,63.30
2018-05-07T06:14:15.759Z,63.30
2018-05-07T06:16:46.316Z,64.30
2018-05-07T16:39:54.022Z,85.30
2018-05-07T16:42:23.768Z,85.30
2018-05-07T16:44:53.504Z,85.30
2018-05-07T16:47:23.256Z,85.30
2018-05-07T16:49:53.748Z,85.50
2018-05-07T16:52:23.499Z,85.50
2018-05-07T16:54:53.273Z,85.00
2018-05-07T16:57:23.025Z,84.90
2018-05-07T16:59:52.768Z,85.00
2018-05-07T17:02:22.531Z,85.00
2018-05-07T17:04:53.082Z,85.00
2018-05-07T17:07:23.393Z,84.90
2018-05-07T17:09:53.913Z,84.70
2018-05-07T17:12:24.487Z,84.60
2018-05-07T17:14:54.299Z,84.60
2018-05-07T17:17:24.094Z,84.90
2018-05-07T17:19:53.850Z,84.90
2018-05-07T17:22:23.602Z,84.70
2018-05-07T17:24:53.350Z,84.60
2018-05-07T17:27:23.086Z,84.80
2018-05-07T17:29:52.920Z,84.90
2018-05-07T17:32:23.458Z,84.60
2018-05-07T17:34:53.979Z,84.60
2018-05-07T17:37:24.462Z,84.50
2018-05-07T17:39:54.209Z,84.50
2018-05-07T17:42:24.716Z,83.70
2018-05-07T17:45:06.377Z,83.70
2018-05-07T17:47:47.266Z,83.90
2018-05-07T17:50:17.026Z,84.10
2018-05-07T17:52:47.546Z,83.80
2018-05-07T17:55:18.112Z,84.00
2018-05-07T17:57:47.893Z,83.90
2018-05-07T18:00:18.403Z,83.70
2018-05-07T18:02:49.711Z,83.60
2018-05-07T18:05:19.486Z,83.60
2018-05-07T18:07:50.031Z,83.80
2018-05-07T18:10:20.791Z,83.80
2018-05-07T18:12:50.592Z,83.70
2018-05-07T18:15:20.365Z,83.50
2018-05-07T18:17:51.150Z,83.40
2018-05-07T18:20:21.027Z,83.40
2018-05-07T18:22:50.814Z,83.30
2018-05-07T18:25:21.361Z,82.90
2018-05-07T18:27:51.924Z,82.60
2018-05-07T18:30:21.700Z,82.50
2018-05-07T18:32:53.031Z,82.20
2018-05-07T18:35:23.840Z,82.10
2018-05-07T18:37:53.604Z,82.00
2018-05-07T18:40:23.394Z,81.20
2018-05-07T18:42:53.881Z,79.80
2018-05-07T18:45:23.634Z,79.70
2018-05-07T18:47:54.157Z,79.60
2018-05-07T18:50:24.663Z,79.90
2018-05-07T18:52:55.931Z,79.90
2018-05-07T18:55:26.454Z,80.00
2018-05-07T18:57:56.215Z,80.00
2018-05-07T19:00:26.139Z,79.90
2018-05-07T19:02:55.872Z,80.00
2018-05-07T19:05:25.692Z,80.00
2018-05-07T19:07:55.424Z,80.00
2018-05-07T19:10:25.916Z,81.00
2018-05-07T19:12:55.742Z,81.70
2018-05-07T19:15:25.466Z,81.00
2018-05-07T19:17:55.969Z,81.50
2018-05-07T19:20:25.741Z,81.50
2018-05-07T19:22:55.531Z,81.70
2018-05-07T19:25:26.039Z,81.40
2018-05-07T19:27:55.777Z,81.40
2018-05-07T19:30:25.491Z,81.40
2018-05-07T19:32:56.098Z,81.60
2018-05-07T19:35:26.607Z,82.00
2018-05-07T19:37:56.342Z,81.90
2018-05-07T19:40:26.870Z,82.30
2018-05-07T19:42:57.369Z,82.80
2018-05-07T19:45:27.142Z,82.80
2018-05-07T19:47:56.953Z,83.10
2018-05-07T19:50:26.797Z,83.20
2018-05-07T19:52:56.547Z,83.30
2018-05-07T19:55:32.533Z,83.90
2018-05-07T19:58:02.559Z,83.70
2018-05-07T20:00:32.368Z,83.90
2018-05-07T20:03:02.104Z,84.00
2018-05-07T20:05:31.863Z,84.00
2018-05-07T20:08:03.212Z,83.70
2018-05-07T20:10:33.764Z,83.30
2018-05-07T20:13:03.550Z,83.20
2018-05-07T20:15:34.070Z,84.00
2018-05-07T20:18:05.577Z,84.60
2018-05-07T20:20:35.289Z,84.60
2018-05-07T20:23:05.937Z,84.40
2018-05-07T20:25:36.733Z,84.40
2018-05-07T20:28:06.497Z,84.40
2018-05-07T20:30:37.010Z,84.20
2018-05-07T20:33:06.885Z,84.10
2018-05-07T20:35:36.664Z,84.20
2018-05-07T20:38:07.199Z,84.00
2018-05-07T20:40:36.928Z,84.00
2018-05-07T20:43:06.728Z,84.30
2018-05-07T20:45:37.559Z,84.50
2018-05-07T20:48:08.123Z,84.50
2018-05-07T20:50:37.898Z,84.40
2018-05-07T20:53:08.416Z,84.30
2018-05-07T20:55:39.000Z,84.60
2018-05-07T20:58:08.983Z,84.60
2018-05-07T21:00:38.734Z,84.90
2018-05-07T21:03:08.741Z,85.00
2018-05-07T21:05:38.503Z,84.90
2018-05-07T21:08:09.030Z,84.80
2018-05-07T21:10:40.487Z,84.70
2018-05-07T21:13:11.089Z,84.70
2018-05-07T21:15:41.648Z,84.50
2018-05-07T21:18:12.160Z,84.40
2018-05-07T21:20:41.923Z,84.40
2018-05-07T21:23:12.492Z,84.30
2018-05-07T21:25:42.255Z,84.30
2018-05-07T21:28:12.012Z,84.20
2018-05-07T21:30:41.740Z,84.10
2018-05-07T21:33:12.303Z,84.40
2018-05-07T21:35:42.100Z,84.30
2018-05-07T21:38:12.953Z,84.40
2018-05-07T21:40:42.694Z,84.30
2018-05-07T21:43:13.412Z,84.40
2018-05-07T21:45:43.900Z,84.20
2018-05-07T21:48:14.446Z,84.30
2018-05-07T21:50:44.192Z,84.30
2018-05-07T21:53:13.960Z,84.40
2018-05-07T21:55:43.712Z,84.60
2018-05-07T21:58:13.457Z,84.70
2018-05-07T22:00:43.210Z,84.80
2018-05-07T22:03:13.818Z,85.00
2018-05-07T22:05:43.614Z,85.10
2018-05-07T22:08:14.186Z,85.20
2018-05-07T22:10:44.023Z,85.20
2018-05-07T22:13:13.792Z,86.00
2018-05-07T22:15:43.556Z,84.90
2018-05-07T22:18:13.298Z,84.90
2018-05-07T22:20:43.813Z,84.80
2018-05-07T22:23:14.350Z,84.40
2018-05-07T22:25:44.894Z,84.30
2018-05-07T22:28:15.411Z,83.90
2018-05-07T22:30:45.932Z,83.70
2018-05-07T22:33:16.465Z,83.50
2018-05-07T22:35:46.970Z,83.60
2018-05-07T22:38:16.736Z,83.50
2018-05-07T22:40:47.259Z,82.70
2018-05-07T22:43:17.022Z,82.70
2018-05-07T22:45:48.511Z,82.50
2018-05-07T22:48:18.279Z,82.30
2018-05-07T22:50:48.029Z,82.40
2018-05-07T22:53:17.800Z,82.40
2018-05-07T22:55:47.631Z,82.50
2018-05-07T22:58:18.144Z,82.40
2018-05-07T23:00:48.007Z,83.10
2018-05-07T23:03:17.794Z,82.20
2018-05-07T23:05:48.324Z,82.50
2018-05-07T23:08:18.848Z,82.60
2018-05-07T23:10:49.378Z,82.80
2018-05-07T23:13:19.876Z,82.80
2018-05-07T23:15:49.643Z,82.80
2018-05-07T23:18:19.400Z,83.20
2018-05-07T23:20:49.269Z,83.50
2018-05-07T23:23:19.029Z,83.80
2018-05-07T23:25:48.753Z,84.10
2018-05-07T23:28:19.245Z,84.30
2018-05-07T23:30:48.995Z,84.30
2018-05-07T23:33:19.559Z,84.20
2018-05-07T23:35:49.272Z,84.90
2018-05-07T23:38:19.014Z,84.20
2018-05-07T23:40:48.768Z,84.30
2018-05-07T23:43:18.700Z,84.30
2018-05-07T23:45:48.498Z,84.00
2018-05-07T23:48:19.078Z,83.70
2018-05-07T23:50:48.936Z,83.70
2018-05-07T23:53:19.562Z,83.90
2018-05-07T23:55:49.350Z,83.90
2018-05-07T23:58:19.147Z,83.70
